Pagina principale
METAR-TAF:

METAR-TAF

Aeroporti :

Torino, Italia

Bric della Croce

latitudine: 45-02N, longitudine: 007-44E, altezza: 709 m

Osservazione

Il bollettino è stato emesso 43 minuti fa, alle 08:55 UTC
Vento calmo
Temperature 19°C
Umidità 83%
Pressione 1020 hPa
Visibilità 10 km o più
nessuna nube inferiore a 1500 m e nessun cumulonembo

METAR: LIMK 290855Z 00000KT CAVOK 19/16 Q1020 RMK SKC VAL NIL VIS MIN 9999

Ora: 11:38 (09:38 UTC)


TAF: mancante

Osservazioni e previsioni meteorologiche di più di 4000 aeroporti (messaggi METAR e TAF).

Le stazioni disponibili sono rappresentate dai dischi gialli e rossi sulla carta.

Puntare il mouse per vedere il nome della stazione.

Clicca sopra per visualizzare le osservazioni e previsioni meteorologiche.

Per cambiare la mappa : fare clic sui pulsanti verdi con una croce nera per ingrandire, il pulsante verde con un trattino per diminuire, o sulla freccia verde per le mappe adiacenti.


METAR-TAF: